createdAt,value
2023-03-03T00:01:55.371Z,16.40
2023-03-03T00:04:23.331Z,16.40
2023-03-03T00:06:52.204Z,15.60
2023-03-03T00:09:20.131Z,16.50
2023-03-03T00:11:50.676Z,17.20
2023-03-03T00:14:24.480Z,16.80
2023-03-03T00:16:52.794Z,18.30
2023-03-03T00:19:21.147Z,17.00
2023-03-03T00:21:50.052Z,16.40
2023-03-03T00:24:21.144Z,14.80
2023-03-03T00:26:56.629Z,15.40
2023-03-03T00:29:27.490Z,15.60
2023-03-03T00:31:55.948Z,15.70
2023-03-03T00:34:28.213Z,16.00
2023-03-03T00:36:57.689Z,15.90
2023-03-03T00:39:38.564Z,15.80
2023-03-03T00:42:14.289Z,15.30
2023-03-03T00:44:43.107Z,16.40
2023-03-03T00:47:31.795Z,16.90
2023-03-03T00:50:07.189Z,15.70
2023-03-03T00:52:41.689Z,15.50
2023-03-03T00:55:10.834Z,17.20
2023-03-03T00:57:41.277Z,17.60
2023-03-03T01:00:10.745Z,16.70
2023-03-03T01:02:39.611Z,16.10
2023-03-03T01:05:08.235Z,16.10
2023-03-03T01:07:36.347Z,16.70
2023-03-03T01:10:04.910Z,16.50
2023-03-03T01:15:01.414Z,16.10
2023-03-03T01:17:34.395Z,16.00
2023-03-03T01:20:02.933Z,15.90
2023-03-03T01:22:31.141Z,15.70
2023-03-03T01:25:00.324Z,15.80
2023-03-03T01:29:57.636Z,14.80
2023-03-03T01:32:25.912Z,16.30
2023-03-03T01:34:57.575Z,15.90
2023-03-03T01:37:26.665Z,17.40
2023-03-03T01:39:54.847Z,18.50
2023-03-03T01:45:15.134Z,18.10
2023-03-03T01:47:47.273Z,16.50
2023-03-03T01:50:21.118Z,19.40
2023-03-03T01:52:54.778Z,19.20
2023-03-03T01:55:25.148Z,19.20
2023-03-03T01:57:59.804Z,20.10
2023-03-03T02:00:28.520Z,19.20
2023-03-03T02:02:57.010Z,19.60
2023-03-03T02:05:25.324Z,19.90
2023-03-03T02:07:53.243Z,19.00
2023-03-03T02:10:22.472Z,20.60
2023-03-03T02:12:52.900Z,18.60
2023-03-03T02:15:27.567Z,19.80
2023-03-03T02:17:56.905Z,18.30
2023-03-03T02:20:24.960Z,20.60
2023-03-03T02:23:21.221Z,20.50
2023-03-03T02:26:07.438Z,18.70
2023-03-03T02:28:36.955Z,19.00
2023-03-03T02:31:11.005Z,19.70
2023-03-03T02:33:41.054Z,17.10
2023-03-03T02:36:16.469Z,19.30
2023-03-03T02:38:52.233Z,17.90
2023-03-03T02:41:23.385Z,18.40
2023-03-03T02:43:53.798Z,17.30
2023-03-03T02:46:22.298Z,17.60
2023-03-03T02:48:50.551Z,16.90
2023-03-03T02:51:18.749Z,17.20
2023-03-03T02:53:46.898Z,18.60
2023-03-03T02:56:15.014Z,19.90
2023-03-03T02:58:43.416Z,19.20
2023-03-03T03:01:11.934Z,17.20
2023-03-03T03:03:41.500Z,17.00
2023-03-03T03:06:10.884Z,18.60
2023-03-03T03:08:41.013Z,18.40
2023-03-03T03:11:09.207Z,17.50
2023-03-03T03:13:38.185Z,17.10
2023-03-03T03:16:08.256Z,17.30
2023-03-03T03:18:36.668Z,18.70
2023-03-03T03:21:09.547Z,17.90
2023-03-03T03:23:39.981Z,18.50
2023-03-03T03:26:10.198Z,18.60
2023-03-03T03:28:39.086Z,18.00
2023-03-03T03:31:08.307Z,18.50
2023-03-03T03:33:36.853Z,17.70
2023-03-03T03:36:06.492Z,18.90
2023-03-03T03:38:36.788Z,19.90
2023-03-03T03:41:08.862Z,18.20
2023-03-03T03:43:37.073Z,21.00
2023-03-03T03:46:05.321Z,25.40
2023-03-03T03:48:34.420Z,30.00
2023-03-03T03:51:03.107Z,32.20
2023-03-03T03:53:32.885Z,33.00
2023-03-03T03:56:01.456Z,34.30
2023-03-03T03:58:30.656Z,31.20
2023-03-03T04:01:05.869Z,32.60
2023-03-03T04:03:35.713Z,36.90
2023-03-03T04:06:05.757Z,43.00
2023-03-03T04:08:35.305Z,43.10
2023-03-03T04:11:03.926Z,38.50
2023-03-03T04:16:05.398Z,26.70
2023-03-03T04:18:35.245Z,24.70
2023-03-03T04:21:06.225Z,22.30
2023-03-03T04:23:34.902Z,22.40
2023-03-03T04:26:03.346Z,20.60
2023-03-03T04:28:31.787Z,20.60
2023-03-03T04:33:29.068Z,18.90
2023-03-03T04:35:57.785Z,20.00
2023-03-03T04:38:26.349Z,19.00
2023-03-03T04:40:56.773Z,17.90
2023-03-03T04:43:25.529Z,19.60
2023-03-03T04:45:55.126Z,19.40
2023-03-03T04:48:24.793Z,19.20
2023-03-03T04:50:53.277Z,19.00
2023-03-03T04:53:21.627Z,19.10
2023-03-03T04:55:52.164Z,18.10
2023-03-03T04:58:21.202Z,19.10
2023-03-03T05:00:56.639Z,18.30
2023-03-03T05:03:27.240Z,19.10
2023-03-03T05:05:55.635Z,18.10
2023-03-03T05:08:23.966Z,18.40
2023-03-03T05:10:53.537Z,20.40
2023-03-03T05:13:27.344Z,20.90
2023-03-03T05:15:56.257Z,20.20
2023-03-03T05:18:24.665Z,18.10
2023-03-03T05:20:52.800Z,17.10
2023-03-03T05:23:21.241Z,17.80
2023-03-03T05:25:50.014Z,19.50
2023-03-03T05:28:19.220Z,20.50
2023-03-03T05:30:47.410Z,19.60
2023-03-03T05:33:16.819Z,20.30
2023-03-03T05:35:45.885Z,21.40
2023-03-03T05:38:17.544Z,19.90
2023-03-03T05:40:45.907Z,20.90
2023-03-03T05:43:14.168Z,23.70
2023-03-03T05:45:42.204Z,23.20
2023-03-03T05:48:10.551Z,23.50
2023-03-03T05:50:39.746Z,21.70
2023-03-03T05:53:08.136Z,20.70
2023-03-03T05:55:37.290Z,20.70
2023-03-03T05:58:05.396Z,19.80
2023-03-03T06:00:34.728Z,19.40
2023-03-03T06:03:02.892Z,19.90
2023-03-03T06:05:32.046Z,20.20
2023-03-03T06:08:01.066Z,19.20
2023-03-03T06:10:29.414Z,19.30
2023-03-03T06:12:58.646Z,19.10
2023-03-03T06:17:56.579Z,20.50
2023-03-03T06:20:25.416Z,20.10
2023-03-03T06:22:53.483Z,20.90
2023-03-03T06:25:21.459Z,19.80
2023-03-03T06:27:49.491Z,20.10
2023-03-03T06:30:19.029Z,19.30
2023-03-03T06:32:47.537Z,20.80
2023-03-03T06:35:15.684Z,21.00
2023-03-03T06:37:44.786Z,22.10
2023-03-03T06:40:13.769Z,20.90
2023-03-03T06:42:42.573Z,20.30
2023-03-03T06:45:11.449Z,21.80
2023-03-03T06:47:39.573Z,21.90
2023-03-03T06:50:11.334Z,21.50
2023-03-03T06:52:39.226Z,20.60
2023-03-03T06:55:17.726Z,19.90
2023-03-03T06:57:45.835Z,19.00
2023-03-03T07:00:30.791Z,17.10
2023-03-03T07:03:12.533Z,17.60
2023-03-03T07:05:45.085Z,17.70
2023-03-03T07:08:16.514Z,16.70
2023-03-03T07:10:45.152Z,19.10
2023-03-03T07:13:27.420Z,19.20
2023-03-03T07:15:56.875Z,19.10
2023-03-03T07:18:45.674Z,19.40
2023-03-03T07:21:14.075Z,18.00
2023-03-03T07:23:43.049Z,19.10
2023-03-03T07:26:34.574Z,18.80
2023-03-03T07:29:26.536Z,18.20
2023-03-03T07:31:56.558Z,17.10
2023-03-03T07:34:31.475Z,18.60
2023-03-03T07:37:35.591Z,19.00
2023-03-03T07:40:24.393Z,17.60
2023-03-03T07:42:52.402Z,17.20
2023-03-03T07:45:34.919Z,18.40
2023-03-03T07:48:26.539Z,17.80
2023-03-03T07:50:54.886Z,17.40
2023-03-03T07:53:30.263Z,18.70
2023-03-03T07:55:58.473Z,19.10
2023-03-03T07:58:40.089Z,17.40
2023-03-03T08:01:40.428Z,19.50
2023-03-03T08:04:14.067Z,21.80
2023-03-03T08:07:00.624Z,22.10
2023-03-03T08:09:44.198Z,22.50
2023-03-03T08:12:28.380Z,22.40
2023-03-03T08:14:57.593Z,20.30
2023-03-03T08:17:36.963Z,21.00
2023-03-03T08:20:53.361Z,19.70
2023-03-03T08:23:21.695Z,18.60
2023-03-03T08:25:50.748Z,19.30
2023-03-03T08:28:19.633Z,19.40
2023-03-03T08:30:48.559Z,18.60
2023-03-03T08:35:45.725Z,18.80
2023-03-03T08:38:17.132Z,17.30
2023-03-03T08:40:45.514Z,18.90
2023-03-03T08:43:21.610Z,17.10
2023-03-03T08:45:50.206Z,16.70
2023-03-03T08:48:18.823Z,16.60
2023-03-03T08:50:47.943Z,16.20
2023-03-03T08:53:16.809Z,16.00
2023-03-03T08:55:45.490Z,16.40
2023-03-03T08:58:15.893Z,16.10
2023-03-03T09:00:51.237Z,14.80
2023-03-03T09:03:39.943Z,14.30
2023-03-03T09:06:10.047Z,15.90
2023-03-03T09:08:38.425Z,15.00
2023-03-03T09:11:17.122Z,15.60
2023-03-03T09:13:53.392Z,14.90
2023-03-03T09:16:22.505Z,14.00
2023-03-03T09:18:54.539Z,14.30
2023-03-03T09:21:27.005Z,14.70
2023-03-03T09:24:01.150Z,14.60
2023-03-03T09:26:39.366Z,16.40
2023-03-03T09:29:10.106Z,14.30
2023-03-03T09:31:59.108Z,15.20
2023-03-03T09:34:36.977Z,13.80
2023-03-03T09:37:36.681Z,13.90
2023-03-03T09:40:26.328Z,15.00
2023-03-03T09:43:10.233Z,13.30
2023-03-03T09:45:53.759Z,21.60
2023-03-03T09:48:53.071Z,16.70
2023-03-03T09:51:41.254Z,13.50
2023-03-03T09:54:16.284Z,13.20
2023-03-03T09:57:09.226Z,14.40
2023-03-03T10:00:00.430Z,13.20
2023-03-03T10:03:06.922Z,12.80
2023-03-03T10:05:54.040Z,13.60
2023-03-03T10:08:37.779Z,12.40
2023-03-03T10:11:10.923Z,14.50
2023-03-03T10:13:59.317Z,15.00
2023-03-03T10:16:56.585Z,13.60
2023-03-03T10:19:34.322Z,14.60
2023-03-03T10:22:29.611Z,14.10
2023-03-03T10:25:05.137Z,14.80
2023-03-03T10:28:02.844Z,15.30
2023-03-03T10:30:48.585Z,14.90
2023-03-03T10:33:35.680Z,16.20
2023-03-03T10:36:22.416Z,16.50
2023-03-03T10:39:19.594Z,16.60
2023-03-03T10:42:29.323Z,17.00
2023-03-03T10:45:13.045Z,16.30
2023-03-03T10:47:50.182Z,16.30
2023-03-03T10:50:27.150Z,16.80
2023-03-03T10:53:23.489Z,17.50
2023-03-03T10:56:04.482Z,17.30
2023-03-03T10:58:54.486Z,17.20
2023-03-03T11:01:45.537Z,16.30
2023-03-03T11:04:24.376Z,16.50
2023-03-03T11:07:13.828Z,16.80
2023-03-03T11:10:01.861Z,16.60
2023-03-03T11:12:39.879Z,17.30
2023-03-03T11:15:35.301Z,16.90
2023-03-03T11:18:14.018Z,16.80
2023-03-03T11:20:46.802Z,16.20
2023-03-03T11:23:53.683Z,19.20
2023-03-03T11:26:33.576Z,16.50
2023-03-03T11:29:40.729Z,15.90
2023-03-03T11:32:41.879Z,15.40
2023-03-03T11:35:19.855Z,15.10
2023-03-03T11:38:03.696Z,14.70
2023-03-03T11:40:50.542Z,13.90
2023-03-03T11:43:37.372Z,13.90
2023-03-03T11:46:20.716Z,13.00
2023-03-03T11:49:14.458Z,12.40
2023-03-03T11:52:12.651Z,12.30
2023-03-03T11:54:51.843Z,13.90
2023-03-03T11:57:30.055Z,13.20
2023-03-03T12:00:03.441Z,13.70
2023-03-03T12:02:57.905Z,12.70
2023-03-03T12:05:44.520Z,13.00
2023-03-03T12:08:12.737Z,14.00
2023-03-03T12:11:08.412Z,12.90
2023-03-03T12:14:17.171Z,14.70
2023-03-03T12:17:33.362Z,13.80
2023-03-03T12:20:07.395Z,13.80
2023-03-03T12:22:41.750Z,13.80
2023-03-03T12:25:14.967Z,13.70
2023-03-03T12:27:43.260Z,13.00
2023-03-03T12:30:26.826Z,14.30
2023-03-03T12:36:12.804Z,15.70
2023-03-03T12:39:13.465Z,14.30
2023-03-03T12:42:10.808Z,16.20
2023-03-03T12:44:48.913Z,16.30
2023-03-03T12:47:33.551Z,16.60
2023-03-03T12:50:08.140Z,17.70
2023-03-03T12:52:48.013Z,17.00
2023-03-03T12:55:44.615Z,17.50
2023-03-03T12:58:37.240Z,18.00
2023-03-03T13:01:28.261Z,19.10
2023-03-03T13:04:11.777Z,16.80
2023-03-03T13:06:55.220Z,18.60
2023-03-03T13:10:03.791Z,17.40
2023-03-03T13:12:47.297Z,17.00
2023-03-03T13:15:31.751Z,17.20
2023-03-03T13:18:00.498Z,18.20
2023-03-03T13:20:59.388Z,17.50
2023-03-03T13:26:27.725Z,15.80
2023-03-03T13:29:20.217Z,18.20
2023-03-03T13:31:56.455Z,18.00
2023-03-03T13:34:30.860Z,17.50
2023-03-03T13:37:14.460Z,18.00
2023-03-03T13:40:00.507Z,17.50
2023-03-03T13:42:32.158Z,18.70
2023-03-03T13:45:00.593Z,18.40
2023-03-03T13:47:41.101Z,17.00
2023-03-03T13:50:38.570Z,18.40
2023-03-03T13:53:18.777Z,16.90
2023-03-03T13:56:23.856Z,16.00
2023-03-03T13:59:15.504Z,17.20
2023-03-03T14:02:01.798Z,16.80
2023-03-03T14:04:52.056Z,17.00
2023-03-03T14:08:07.513Z,17.90
2023-03-03T14:11:05.305Z,17.60
2023-03-03T14:13:53.553Z,18.10
2023-03-03T14:16:32.984Z,17.10
2023-03-03T14:19:09.919Z,17.20
2023-03-03T14:22:00.293Z,17.40
2023-03-03T14:24:30.389Z,17.30
2023-03-03T14:27:01.809Z,16.60
2023-03-03T14:29:32.514Z,17.40
2023-03-03T14:32:01.775Z,17.30
2023-03-03T14:34:39.496Z,16.70
2023-03-03T14:37:29.708Z,18.60
2023-03-03T14:40:07.189Z,16.90
2023-03-03T14:42:48.381Z,16.00
2023-03-03T14:45:37.444Z,15.40
2023-03-03T14:48:22.821Z,17.00
2023-03-03T14:50:56.668Z,15.40
2023-03-03T14:53:34.437Z,17.00
2023-03-03T14:56:16.203Z,16.70
2023-03-03T14:58:44.624Z,16.40
2023-03-03T15:03:49.303Z,15.80
2023-03-03T15:06:42.086Z,15.70
2023-03-03T15:09:30.036Z,16.00
2023-03-03T15:11:59.638Z,16.70
2023-03-03T15:14:32.524Z,15.40
2023-03-03T15:17:19.512Z,16.60
2023-03-03T15:20:17.100Z,15.90
2023-03-03T15:23:14.621Z,16.30
2023-03-03T15:25:54.599Z,16.50
2023-03-03T15:28:29.848Z,16.30
2023-03-03T15:31:18.032Z,15.60
2023-03-03T15:34:23.149Z,15.50
2023-03-03T15:37:16.411Z,16.20
2023-03-03T15:40:21.832Z,14.10
2023-03-03T15:43:02.480Z,15.70
2023-03-03T15:45:47.992Z,15.70
2023-03-03T15:48:19.207Z,14.80
2023-03-03T15:51:16.247Z,14.70
2023-03-03T15:53:53.260Z,15.50
2023-03-03T15:56:49.774Z,14.70
2023-03-03T15:59:36.093Z,14.00
2023-03-03T16:02:46.615Z,14.50
2023-03-03T16:05:17.140Z,13.60
2023-03-03T16:08:13.893Z,14.00
2023-03-03T16:10:57.435Z,13.90
2023-03-03T16:13:45.628Z,14.70
2023-03-03T16:16:43.723Z,13.90
2023-03-03T16:19:22.175Z,14.70
2023-03-03T16:21:52.857Z,14.20
2023-03-03T16:24:29.082Z,15.60
2023-03-03T16:27:06.324Z,14.40
2023-03-03T16:29:57.900Z,15.60
2023-03-03T16:32:36.424Z,16.10
2023-03-03T16:35:24.378Z,16.40
2023-03-03T16:37:57.038Z,15.30
2023-03-03T16:40:45.617Z,14.80
2023-03-03T16:44:00.516Z,15.20
2023-03-03T16:46:35.947Z,16.70
2023-03-03T16:49:58.777Z,15.90
2023-03-03T16:52:33.190Z,14.60
2023-03-03T16:55:27.713Z,16.60
2023-03-03T16:58:04.960Z,15.80
2023-03-03T17:01:12.959Z,15.30
2023-03-03T17:03:47.288Z,16.10
2023-03-03T17:06:33.885Z,14.90
2023-03-03T17:09:32.055Z,15.30
2023-03-03T17:12:04.038Z,15.00
2023-03-03T17:14:39.159Z,15.10
2023-03-03T17:17:40.514Z,15.30
2023-03-03T17:20:26.875Z,15.90
2023-03-03T17:23:08.147Z,15.80
2023-03-03T17:26:13.244Z,14.40
2023-03-03T17:28:51.758Z,14.30
2023-03-03T17:31:38.106Z,14.60
2023-03-03T17:34:19.199Z,15.20
2023-03-03T17:37:08.838Z,15.30
2023-03-03T17:39:55.608Z,15.70
2023-03-03T17:43:05.004Z,14.60
2023-03-03T17:45:36.425Z,14.50
2023-03-03T17:48:42.929Z,14.40
2023-03-03T17:51:43.061Z,13.20
2023-03-03T17:54:20.456Z,14.90
2023-03-03T17:57:02.691Z,14.70
2023-03-03T17:59:41.522Z,14.20
2023-03-03T18:02:17.709Z,14.40
2023-03-03T18:05:14.115Z,14.50
2023-03-03T18:08:06.949Z,13.90
2023-03-03T18:11:08.368Z,14.00
2023-03-03T18:13:41.719Z,14.60
2023-03-03T18:16:24.567Z,14.30
2023-03-03T18:19:15.752Z,14.00
2023-03-03T18:21:53.339Z,13.90
2023-03-03T18:24:30.633Z,13.70
2023-03-03T18:27:33.725Z,13.80
2023-03-03T18:30:07.836Z,14.70
2023-03-03T18:33:03.466Z,14.50
2023-03-03T18:35:45.586Z,15.00
2023-03-03T18:38:16.525Z,14.60
2023-03-03T18:40:57.096Z,15.40
2023-03-03T18:43:43.572Z,14.40
2023-03-03T18:46:32.821Z,14.20
2023-03-03T18:49:02.253Z,13.70
2023-03-03T18:51:39.541Z,14.40
2023-03-03T18:54:17.319Z,14.10
2023-03-03T18:56:56.026Z,13.50
2023-03-03T18:59:35.429Z,14.30
2023-03-03T19:02:29.841Z,13.60
2023-03-03T19:05:23.489Z,13.90
2023-03-03T19:08:16.776Z,14.40
2023-03-03T19:10:55.586Z,15.40
2023-03-03T19:13:32.883Z,15.70
2023-03-03T19:16:06.400Z,16.80
2023-03-03T19:18:55.250Z,15.00
2023-03-03T19:21:33.999Z,14.90
2023-03-03T19:24:36.452Z,15.40
2023-03-03T19:27:49.275Z,15.20
2023-03-03T19:30:47.361Z,14.60
2023-03-03T19:33:23.180Z,14.70
2023-03-03T19:36:25.574Z,14.20
2023-03-03T19:39:25.159Z,14.10
2023-03-03T19:42:06.165Z,14.80
2023-03-03T19:45:12.235Z,15.60
2023-03-03T19:47:54.702Z,15.30
2023-03-03T19:50:33.133Z,14.90
2023-03-03T19:53:20.012Z,15.30
2023-03-03T19:56:09.826Z,14.60
2023-03-03T19:58:56.309Z,14.60
2023-03-03T20:01:24.779Z,13.80
2023-03-03T20:04:12.052Z,16.00
2023-03-03T20:06:54.867Z,14.30
2023-03-03T20:09:41.861Z,15.10
2023-03-03T20:12:32.697Z,14.30
2023-03-03T20:15:15.280Z,15.20
2023-03-03T20:18:01.901Z,14.60
2023-03-03T20:20:49.990Z,15.10
2023-03-03T20:23:36.805Z,15.20
2023-03-03T20:26:27.205Z,14.40
2023-03-03T20:29:15.914Z,14.70
2023-03-03T20:31:57.395Z,14.80
2023-03-03T20:34:46.876Z,15.50
2023-03-03T20:37:20.796Z,14.70
2023-03-03T20:40:13.205Z,14.90
2023-03-03T20:42:45.545Z,14.40
2023-03-03T20:45:42.099Z,14.50
2023-03-03T20:48:13.853Z,14.90
2023-03-03T20:50:55.573Z,15.60
2023-03-03T20:53:26.859Z,15.30
2023-03-03T20:56:03.472Z,15.00
2023-03-03T20:58:37.270Z,16.20
2023-03-03T21:01:16.407Z,14.70
2023-03-03T21:03:45.391Z,16.30
2023-03-03T21:06:18.312Z,15.40
2023-03-03T21:08:49.642Z,14.40
2023-03-03T21:11:22.624Z,15.60
2023-03-03T21:13:52.170Z,15.30
2023-03-03T21:16:20.215Z,14.60
2023-03-03T21:19:01.607Z,15.20
2023-03-03T21:21:38.167Z,15.70
2023-03-03T21:24:07.278Z,15.90
2023-03-03T21:26:48.860Z,16.20
2023-03-03T21:29:20.953Z,16.60
2023-03-03T21:31:59.451Z,15.50
2023-03-03T21:34:32.650Z,15.90
2023-03-03T21:37:07.100Z,16.90
2023-03-03T21:39:39.556Z,17.50
2023-03-03T21:42:10.565Z,15.90
2023-03-03T21:44:44.518Z,16.80
2023-03-03T21:47:15.134Z,16.00
2023-03-03T21:50:00.403Z,15.50
2023-03-03T21:52:29.164Z,16.20
2023-03-03T21:54:57.382Z,16.20
2023-03-03T21:57:26.751Z,17.50
2023-03-03T21:59:55.014Z,17.00
2023-03-03T22:02:22.947Z,17.60
2023-03-03T22:04:51.137Z,16.70
2023-03-03T22:07:19.232Z,17.70
2023-03-03T22:09:47.674Z,17.30
2023-03-03T22:12:16.107Z,18.00
2023-03-03T22:14:44.318Z,17.40
2023-03-03T22:17:12.330Z,17.90
2023-03-03T22:19:40.372Z,17.50
2023-03-03T22:27:07.695Z,17.50
2023-03-03T22:29:37.403Z,17.20
2023-03-03T22:32:05.686Z,18.60
2023-03-03T22:34:33.968Z,18.70
2023-03-03T22:37:02.028Z,17.10
2023-03-03T22:39:30.426Z,17.60
2023-03-03T22:41:58.586Z,18.90
2023-03-03T22:44:26.764Z,19.30
2023-03-03T22:46:54.876Z,18.40
2023-03-03T22:49:23.018Z,18.70
2023-03-03T22:51:51.013Z,17.30
2023-03-03T22:54:20.909Z,17.70
2023-03-03T22:56:48.951Z,19.10
2023-03-03T22:59:17.136Z,17.60
2023-03-03T23:01:47.982Z,18.70
2023-03-03T23:04:16.909Z,18.40
2023-03-03T23:06:47.843Z,18.40
2023-03-03T23:09:20.484Z,17.80
2023-03-03T23:11:49.786Z,19.00
2023-03-03T23:14:17.749Z,18.90
2023-03-03T23:16:47.336Z,19.40
2023-03-03T23:19:15.993Z,18.70
2023-03-03T23:21:44.308Z,20.20
2023-03-03T23:24:12.281Z,19.30
2023-03-03T23:26:40.349Z,19.10
2023-03-03T23:31:41.312Z,17.50
2023-03-03T23:34:09.223Z,19.70
2023-03-03T23:36:37.353Z,18.20
2023-03-03T23:39:05.774Z,18.20
2023-03-03T23:41:34.393Z,19.60
2023-03-03T23:44:02.482Z,21.40
2023-03-03T23:46:34.261Z,19.60
2023-03-03T23:49:02.435Z,20.30
2023-03-03T23:54:01.632Z,18.20
2023-03-03T23:56:29.809Z,18.80
2023-03-03T23:58:57.980Z,20.00
